createdAt,value
2022-08-25T00:01:24.688Z,52.09
2022-08-25T00:03:54.245Z,53.75
2022-08-25T00:06:21.522Z,52.77
2022-08-25T00:08:48.873Z,52.84
2022-08-25T00:11:24.162Z,52.23
2022-08-25T00:13:54.757Z,52.07
2022-08-25T00:16:22.565Z,51.88
2022-08-25T00:18:53.416Z,52.41
2022-08-25T00:21:20.167Z,51.60
2022-08-25T00:23:46.682Z,51.99
2022-08-25T00:26:14.985Z,53.22
2022-08-25T00:28:41.836Z,53.48
2022-08-25T00:31:12.935Z,52.96
2022-08-25T00:33:39.404Z,53.40
2022-08-25T00:36:06.422Z,52.31
2022-08-25T00:38:33.089Z,52.63
2022-08-25T00:41:08.518Z,52.13
2022-08-25T00:43:41.053Z,53.19
2022-08-25T00:46:09.607Z,55.52
2022-08-25T00:48:38.703Z,57.10
2022-08-25T00:51:09.839Z,57.91
2022-08-25T00:53:36.773Z,57.03
2022-08-25T00:56:04.133Z,56.67
2022-08-25T00:58:32.358Z,55.28
2022-08-25T01:00:59.736Z,56.64
2022-08-25T01:03:33.212Z,58.95
2022-08-25T01:06:04.291Z,59.33
2022-08-25T01:08:33.092Z,56.92
2022-08-25T01:11:04.842Z,57.17
2022-08-25T01:13:42.690Z,55.73
2022-08-25T01:16:09.327Z,54.69
2022-08-25T01:18:47.783Z,55.17
2022-08-25T01:21:15.186Z,56.46
2022-08-25T01:23:42.102Z,56.22
2022-08-25T01:26:15.815Z,57.04
2022-08-25T01:29:04.345Z,56.20
2022-08-25T01:31:32.340Z,55.30
2022-08-25T01:33:59.513Z,54.83
2022-08-25T01:36:28.320Z,54.18
2022-08-25T01:38:55.161Z,53.84
2022-08-25T01:41:32.018Z,54.14
2022-08-25T01:43:58.682Z,54.61
2022-08-25T01:46:25.676Z,54.34
2022-08-25T01:48:52.292Z,54.62
2022-08-25T01:51:25.175Z,54.53
2022-08-25T01:53:51.701Z,54.68
2022-08-25T01:56:18.291Z,54.75
2022-08-25T01:58:48.872Z,55.04
2022-08-25T02:01:22.297Z,55.30
2022-08-25T02:03:52.657Z,55.43
2022-08-25T02:06:27.681Z,55.26
2022-08-25T02:09:01.082Z,55.66
2022-08-25T02:11:28.697Z,55.32
2022-08-25T02:13:55.342Z,55.33
2022-08-25T02:16:29.074Z,58.61
2022-08-25T02:18:56.984Z,56.83
2022-08-25T02:21:23.473Z,55.81
2022-08-25T02:23:50.060Z,55.71
2022-08-25T02:26:19.062Z,55.80
2022-08-25T02:28:47.868Z,55.91
2022-08-25T02:31:15.479Z,55.59
2022-08-25T02:33:42.032Z,55.79
2022-08-25T02:36:09.063Z,56.03
2022-08-25T02:38:36.641Z,56.01
2022-08-25T02:41:13.493Z,55.99
2022-08-25T02:43:41.635Z,55.96
2022-08-25T02:46:08.936Z,56.75
2022-08-25T02:48:36.725Z,56.19
2022-08-25T02:51:05.815Z,56.02
2022-08-25T02:53:33.384Z,56.31
2022-08-25T02:55:59.911Z,56.40
2022-08-25T02:58:26.392Z,57.06
2022-08-25T03:00:53.071Z,56.83
2022-08-25T03:03:20.660Z,56.44
2022-08-25T03:05:47.966Z,56.50
2022-08-25T03:08:15.056Z,56.72
2022-08-25T03:10:41.616Z,56.83
2022-08-25T03:13:08.122Z,57.58
2022-08-25T03:15:37.769Z,56.96
2022-08-25T03:18:05.923Z,57.56
2022-08-25T03:20:35.668Z,58.66
2022-08-25T03:23:03.039Z,58.78
2022-08-25T03:25:48.077Z,57.96
2022-08-25T03:28:14.822Z,58.08
2022-08-25T03:30:41.990Z,57.79
2022-08-25T03:33:09.248Z,57.70
2022-08-25T03:35:35.763Z,58.00
2022-08-25T03:38:02.919Z,61.34
2022-08-25T03:40:29.961Z,61.42
2022-08-25T03:42:56.811Z,63.76
2022-08-25T03:45:24.829Z,65.10
2022-08-25T03:47:52.398Z,65.70
2022-08-25T03:50:20.679Z,67.00
2022-08-25T03:52:52.294Z,63.40
2022-08-25T03:55:18.768Z,63.15
2022-08-25T03:57:45.192Z,63.96
2022-08-25T04:00:12.376Z,64.63
2022-08-25T04:02:40.009Z,63.38
2022-08-25T04:05:07.235Z,61.63
2022-08-25T04:07:33.814Z,61.46
2022-08-25T04:10:00.302Z,60.92
2022-08-25T04:12:26.782Z,61.75
2022-08-25T04:14:53.282Z,62.49
2022-08-25T04:17:19.833Z,61.27
2022-08-25T04:19:46.280Z,60.32
2022-08-25T04:22:13.240Z,61.08
2022-08-25T04:24:40.114Z,61.45
2022-08-25T04:27:06.597Z,61.24
2022-08-25T04:29:34.029Z,60.82
2022-08-25T04:32:00.591Z,61.30
2022-08-25T04:34:29.503Z,61.50
2022-08-25T04:37:02.500Z,61.72
2022-08-25T04:39:29.143Z,62.33
2022-08-25T04:41:55.909Z,61.21
2022-08-25T04:44:22.442Z,62.57
2022-08-25T04:46:49.709Z,61.46
2022-08-25T04:49:16.241Z,63.57
2022-08-25T04:51:42.944Z,62.18
2022-08-25T04:54:13.057Z,62.82
2022-08-25T04:56:41.416Z,63.82
2022-08-25T04:59:13.727Z,62.76
2022-08-25T05:01:42.301Z,64.79
2022-08-25T05:04:14.714Z,63.90
2022-08-25T05:06:54.842Z,63.68
2022-08-25T05:09:21.783Z,64.73
2022-08-25T05:11:48.633Z,65.58
2022-08-25T05:14:18.142Z,64.17
2022-08-25T05:16:46.293Z,64.39
2022-08-25T05:19:13.093Z,66.49
2022-08-25T05:21:39.814Z,64.69
2022-08-25T05:24:07.717Z,66.28
2022-08-25T05:26:36.599Z,66.84
2022-08-25T05:29:04.973Z,65.53
2022-08-25T05:31:32.739Z,69.15
2022-08-25T05:34:00.397Z,66.68
2022-08-25T05:36:28.003Z,67.45
2022-08-25T05:38:54.559Z,65.42
2022-08-25T05:41:25.182Z,66.88
2022-08-25T05:43:52.162Z,70.19
2022-08-25T05:46:20.059Z,71.13
2022-08-25T05:48:47.716Z,67.32
2022-08-25T05:51:15.035Z,66.64
2022-08-25T05:53:44.729Z,64.74
2022-08-25T05:56:11.911Z,63.86
2022-08-25T05:58:38.394Z,66.14
2022-08-25T06:01:24.608Z,63.62
2022-08-25T06:03:54.262Z,62.10
2022-08-25T06:06:23.149Z,61.71
2022-08-25T06:08:49.879Z,60.32
2022-08-25T06:11:16.439Z,59.54
2022-08-25T06:13:43.458Z,60.72
2022-08-25T06:16:10.122Z,59.70
2022-08-25T06:18:36.640Z,59.11
2022-08-25T06:21:13.654Z,60.17
2022-08-25T06:23:40.725Z,58.82
2022-08-25T06:26:10.030Z,58.74
2022-08-25T06:28:39.689Z,62.24
2022-08-25T06:31:06.463Z,61.42
2022-08-25T06:33:33.341Z,58.85
2022-08-25T06:35:59.892Z,58.35
2022-08-25T06:38:27.097Z,57.33
2022-08-25T06:40:53.915Z,57.33
2022-08-25T06:43:21.774Z,56.93
2022-08-25T06:45:48.579Z,61.17
2022-08-25T06:48:15.610Z,62.78
2022-08-25T06:50:42.814Z,60.58
2022-08-25T06:53:09.416Z,58.68
2022-08-25T06:55:36.812Z,58.07
2022-08-25T06:58:04.922Z,57.42
2022-08-25T07:00:32.904Z,58.64
2022-08-25T07:03:01.128Z,56.61
2022-08-25T07:05:40.913Z,57.04
2022-08-25T07:08:11.603Z,55.82
2022-08-25T07:10:38.133Z,56.15
2022-08-25T07:13:04.576Z,55.34
2022-08-25T07:15:31.084Z,56.35
2022-08-25T07:17:57.641Z,56.16
2022-08-25T07:22:52.027Z,55.25
2022-08-25T07:25:18.708Z,54.22
2022-08-25T07:27:45.264Z,54.79
2022-08-25T07:30:11.770Z,54.53
2022-08-25T07:32:38.342Z,56.93
2022-08-25T07:35:19.071Z,55.46
2022-08-25T07:37:58.041Z,54.30
2022-08-25T07:40:24.942Z,55.94
2022-08-25T07:42:54.669Z,53.33
2022-08-25T07:45:30.051Z,52.06
2022-08-25T07:48:06.819Z,52.76
2022-08-25T07:50:34.395Z,50.95
2022-08-25T07:53:01.017Z,50.64
2022-08-25T07:55:28.450Z,53.87
2022-08-25T07:57:57.328Z,50.80
2022-08-25T08:00:27.643Z,48.59
2022-08-25T08:02:54.958Z,47.08
2022-08-25T08:05:23.997Z,50.34
2022-08-25T08:07:51.031Z,52.36
2022-08-25T08:13:07.133Z,49.44
2022-08-25T08:15:34.953Z,48.82
2022-08-25T08:18:02.021Z,49.02
2022-08-25T08:20:32.098Z,48.79
2022-08-25T08:23:09.443Z,51.16
2022-08-25T08:25:36.062Z,49.31
2022-08-25T08:28:02.906Z,52.93
2022-08-25T08:30:29.521Z,49.06
2022-08-25T08:33:12.419Z,48.18
2022-08-25T08:35:41.162Z,49.01
2022-08-25T08:38:14.687Z,53.28
2022-08-25T08:41:23.091Z,51.13
2022-08-25T08:43:56.422Z,51.30
2022-08-25T08:46:26.010Z,50.37
2022-08-25T08:49:04.530Z,53.00
2022-08-25T08:51:35.911Z,50.16
2022-08-25T08:54:15.011Z,51.85
2022-08-25T08:56:48.166Z,51.33
2022-08-25T08:59:30.339Z,51.70
2022-08-25T09:02:02.686Z,49.70
2022-08-25T09:04:37.648Z,51.97
2022-08-25T09:07:12.064Z,51.09
2022-08-25T09:09:41.914Z,51.02
2022-08-25T09:12:19.562Z,53.23
2022-08-25T09:14:58.325Z,51.63
2022-08-25T09:17:59.087Z,50.13
2022-08-25T09:21:05.398Z,50.56
2022-08-25T09:23:58.326Z,49.82
2022-08-25T09:26:36.295Z,49.37
2022-08-25T09:29:07.304Z,50.66
2022-08-25T09:31:43.583Z,52.48
2022-08-25T09:34:18.774Z,49.78
2022-08-25T09:36:48.398Z,51.60
2022-08-25T09:39:15.410Z,53.86
2022-08-25T09:41:51.614Z,53.94
2022-08-25T09:44:25.978Z,53.86
2022-08-25T09:47:17.267Z,52.98
2022-08-25T09:49:49.093Z,50.90
2022-08-25T09:52:25.388Z,49.06
2022-08-25T09:54:53.816Z,51.01
2022-08-25T09:57:33.635Z,49.06
2022-08-25T10:00:15.099Z,51.23
2022-08-25T10:02:43.940Z,50.79
2022-08-25T10:05:23.717Z,51.76
2022-08-25T10:07:59.134Z,49.56
2022-08-25T10:10:52.898Z,48.58
2022-08-25T10:13:23.598Z,48.17
2022-08-25T10:16:25.080Z,48.18
2022-08-25T10:19:00.963Z,48.90
2022-08-25T10:21:27.432Z,48.90
2022-08-25T10:23:55.958Z,47.29
2022-08-25T10:26:34.941Z,47.92
2022-08-25T10:29:30.958Z,47.18
2022-08-25T10:32:18.689Z,46.90
2022-08-25T10:34:51.623Z,47.20
2022-08-25T10:37:43.910Z,45.86
2022-08-25T10:40:28.704Z,46.48
2022-08-25T10:43:07.399Z,46.11
2022-08-25T10:46:03.457Z,47.75
2022-08-25T10:48:50.604Z,45.89
2022-08-25T10:51:39.135Z,45.29
2022-08-25T10:54:27.501Z,45.60
2022-08-25T10:57:09.098Z,45.16
2022-08-25T11:00:05.909Z,44.59
2022-08-25T11:02:41.376Z,46.43
2022-08-25T11:05:16.982Z,44.18
2022-08-25T11:07:58.408Z,43.34
2022-08-25T11:11:24.272Z,43.14
2022-08-25T11:14:11.139Z,44.17
2022-08-25T11:16:57.412Z,42.93
2022-08-25T11:19:33.777Z,42.89
2022-08-25T11:22:11.687Z,42.49
2022-08-25T11:25:16.827Z,47.15
2022-08-25T11:28:03.610Z,45.44
2022-08-25T11:30:30.367Z,45.94
2022-08-25T11:32:57.861Z,48.86
2022-08-25T11:35:42.439Z,45.54
2022-08-25T11:38:48.116Z,47.51
2022-08-25T11:41:53.255Z,45.75
2022-08-25T11:44:45.625Z,45.97
2022-08-25T11:47:55.387Z,44.72
2022-08-25T11:50:30.080Z,45.07
2022-08-25T11:53:17.912Z,46.81
2022-08-25T11:55:53.667Z,44.76
2022-08-25T11:58:50.996Z,44.90
2022-08-25T12:01:39.223Z,44.84
2022-08-25T12:04:44.747Z,43.96
2022-08-25T12:07:14.867Z,44.17
2022-08-25T12:09:50.088Z,46.74
2022-08-25T12:12:31.969Z,46.22
2022-08-25T12:15:20.417Z,45.96
2022-08-25T12:18:11.525Z,46.85
2022-08-25T12:20:53.403Z,44.88
2022-08-25T12:23:31.914Z,42.71
2022-08-25T12:26:04.077Z,43.08
2022-08-25T12:29:07.546Z,46.96
2022-08-25T12:31:52.787Z,45.35
2022-08-25T12:34:26.988Z,42.18
2022-08-25T12:37:13.250Z,44.23
2022-08-25T12:39:50.821Z,42.35
2022-08-25T12:42:39.716Z,44.85
2022-08-25T12:45:21.158Z,44.52
2022-08-25T12:48:25.275Z,45.78
2022-08-25T12:51:19.559Z,45.88
2022-08-25T12:54:10.914Z,43.23
2022-08-25T12:56:47.742Z,43.40
2022-08-25T12:59:32.781Z,45.07
2022-08-25T13:02:52.162Z,45.44
2022-08-25T13:05:37.607Z,45.19
2022-08-25T13:08:22.707Z,45.65
2022-08-25T13:11:04.667Z,45.21
2022-08-25T13:13:49.096Z,43.80
2022-08-25T13:16:27.079Z,44.38
2022-08-25T13:18:59.141Z,43.21
2022-08-25T13:21:30.617Z,43.18
2022-08-25T13:24:04.681Z,41.40
2022-08-25T13:26:48.499Z,43.32
2022-08-25T13:29:27.743Z,42.67
2022-08-25T13:31:58.764Z,42.39
2022-08-25T13:35:12.527Z,42.73
2022-08-25T13:37:40.777Z,40.25
2022-08-25T13:40:10.197Z,41.51
2022-08-25T13:42:43.658Z,40.16
2022-08-25T13:45:17.171Z,38.62
2022-08-25T13:47:45.598Z,40.07
2022-08-25T13:50:17.440Z,42.51
2022-08-25T13:52:58.902Z,42.02
2022-08-25T13:55:50.769Z,39.66
2022-08-25T13:58:24.707Z,40.17
2022-08-25T14:01:48.635Z,40.32
2022-08-25T14:04:50.680Z,41.78
2022-08-25T14:07:21.113Z,41.07
2022-08-25T14:10:00.134Z,38.58
2022-08-25T14:12:36.498Z,39.02
2022-08-25T14:15:11.608Z,38.03
2022-08-25T14:17:41.908Z,38.23
2022-08-25T14:20:20.319Z,38.04
2022-08-25T14:22:47.075Z,40.29
2022-08-25T14:25:13.613Z,38.65
2022-08-25T14:28:06.831Z,39.98
2022-08-25T14:30:34.704Z,40.72
2022-08-25T14:33:03.937Z,39.25
2022-08-25T14:35:31.477Z,38.64
2022-08-25T14:37:58.263Z,38.10
2022-08-25T14:40:24.891Z,38.97
2022-08-25T14:42:51.489Z,38.33
2022-08-25T14:45:19.255Z,37.90
2022-08-25T14:47:49.732Z,37.65
2022-08-25T14:50:20.177Z,37.82
2022-08-25T14:52:48.223Z,37.98
2022-08-25T14:55:31.276Z,38.50
2022-08-25T14:57:58.532Z,38.42
2022-08-25T15:00:26.052Z,39.88
2022-08-25T15:02:53.146Z,38.66
2022-08-25T15:05:24.663Z,38.39
2022-08-25T15:08:12.280Z,38.92
2022-08-25T15:10:40.165Z,38.50
2022-08-25T15:13:07.266Z,38.96
2022-08-25T15:15:38.065Z,37.52
2022-08-25T15:18:05.480Z,38.67
2022-08-25T15:20:32.827Z,39.12
2022-08-25T15:22:59.764Z,39.46
2022-08-25T15:25:26.619Z,38.26
2022-08-25T15:27:54.111Z,37.93
2022-08-25T15:30:20.858Z,37.30
2022-08-25T15:32:57.515Z,38.79
2022-08-25T15:35:24.446Z,38.79
2022-08-25T15:37:55.691Z,38.59
2022-08-25T15:40:22.338Z,37.92
2022-08-25T15:42:48.886Z,38.23
2022-08-25T15:45:15.510Z,38.30
2022-08-25T15:47:42.258Z,37.90
2022-08-25T15:50:15.566Z,37.60
2022-08-25T15:52:46.336Z,38.83
2022-08-25T15:55:14.651Z,37.44
2022-08-25T15:57:41.141Z,38.75
2022-08-25T16:00:11.957Z,37.85
2022-08-25T16:02:40.457Z,38.40
2022-08-25T16:05:08.913Z,37.58
2022-08-25T16:07:36.139Z,37.71
2022-08-25T16:10:04.040Z,37.77
2022-08-25T16:12:31.619Z,37.36
2022-08-25T16:14:58.298Z,38.36
2022-08-25T16:17:25.175Z,37.94
2022-08-25T16:19:51.645Z,38.66
2022-08-25T16:22:18.112Z,38.72
2022-08-25T16:24:45.026Z,38.81
2022-08-25T16:27:12.895Z,39.20
2022-08-25T16:29:41.926Z,38.89
2022-08-25T16:32:10.395Z,38.99
2022-08-25T16:34:37.429Z,39.71
2022-08-25T16:37:06.240Z,39.34
2022-08-25T16:39:32.976Z,38.77
2022-08-25T16:41:59.514Z,39.33
2022-08-25T16:44:26.077Z,39.20
2022-08-25T16:46:54.608Z,40.48
2022-08-25T16:49:24.459Z,39.53
2022-08-25T16:51:52.236Z,40.11
2022-08-25T16:54:48.684Z,38.96
2022-08-25T16:57:15.560Z,38.93
2022-08-25T16:59:42.615Z,38.72
2022-08-25T17:02:10.542Z,38.89
2022-08-25T17:04:37.213Z,39.49
2022-08-25T17:07:04.598Z,39.36
2022-08-25T17:09:31.727Z,38.85
2022-08-25T17:11:58.233Z,38.57
2022-08-25T17:14:25.391Z,42.54
2022-08-25T17:16:55.046Z,39.64
2022-08-25T17:19:23.830Z,39.38
2022-08-25T17:21:52.144Z,39.65
2022-08-25T17:24:18.903Z,40.37
2022-08-25T17:26:49.756Z,39.91
2022-08-25T17:29:17.997Z,41.77
2022-08-25T17:31:46.270Z,41.59
2022-08-25T17:34:16.507Z,42.85
2022-08-25T17:36:44.298Z,41.52
2022-08-25T17:39:12.797Z,42.63
2022-08-25T17:41:41.740Z,41.20
2022-08-25T17:44:08.219Z,40.77
2022-08-25T17:46:34.868Z,40.52
2022-08-25T17:49:01.502Z,41.28
2022-08-25T17:51:31.780Z,41.24
2022-08-25T17:53:58.729Z,40.90
2022-08-25T17:56:27.389Z,41.47
2022-08-25T17:58:55.600Z,41.25
2022-08-25T18:01:25.516Z,43.57
2022-08-25T18:03:52.952Z,42.20
2022-08-25T18:06:21.142Z,42.81
2022-08-25T18:08:51.693Z,42.10
2022-08-25T18:11:21.659Z,42.18
2022-08-25T18:13:48.114Z,42.33
2022-08-25T18:16:17.213Z,43.93
2022-08-25T18:18:44.580Z,42.95
2022-08-25T18:21:16.420Z,43.55
2022-08-25T18:23:43.090Z,42.83
2022-08-25T18:26:12.866Z,44.03
2022-08-25T18:28:40.044Z,42.92
2022-08-25T18:31:11.945Z,43.44
2022-08-25T18:33:41.722Z,42.77
2022-08-25T18:36:09.166Z,43.09
2022-08-25T18:38:57.983Z,42.75
2022-08-25T18:41:26.819Z,42.85
2022-08-25T18:43:53.439Z,42.75
2022-08-25T18:46:22.753Z,43.45
2022-08-25T18:48:52.787Z,43.59
2022-08-25T18:51:19.540Z,43.58
2022-08-25T18:53:51.085Z,43.22
2022-08-25T18:56:21.742Z,43.16
2022-08-25T18:58:48.441Z,44.21
2022-08-25T19:01:17.054Z,43.60
2022-08-25T19:03:45.063Z,44.81
2022-08-25T19:06:12.120Z,44.08
2022-08-25T19:08:41.803Z,44.20
2022-08-25T19:11:09.893Z,44.01
2022-08-25T19:13:37.386Z,44.06
2022-08-25T19:16:20.697Z,45.08
2022-08-25T19:18:48.888Z,44.42
2022-08-25T19:21:20.545Z,45.39
2022-08-25T19:23:50.260Z,47.18
2022-08-25T19:26:17.956Z,45.44
2022-08-25T19:28:49.024Z,45.33
2022-08-25T19:31:18.246Z,46.99
2022-08-25T19:33:46.009Z,45.63
2022-08-25T19:36:14.074Z,46.39
2022-08-25T19:38:40.790Z,45.95
2022-08-25T19:41:09.034Z,46.27
2022-08-25T19:43:55.735Z,46.25
2022-08-25T19:46:35.520Z,46.01
2022-08-25T19:49:07.948Z,46.38
2022-08-25T19:51:38.848Z,45.93
2022-08-25T19:54:06.826Z,49.07
2022-08-25T19:56:36.337Z,47.28
2022-08-25T19:59:03.640Z,47.24
2022-08-25T20:01:30.192Z,50.49
2022-08-25T20:03:57.011Z,48.94
2022-08-25T20:06:23.973Z,49.13
2022-08-25T20:09:00.347Z,47.82
2022-08-25T20:11:28.886Z,47.54
2022-08-25T20:13:59.272Z,49.35
2022-08-25T20:16:28.403Z,48.61
2022-08-25T20:18:55.002Z,48.88
2022-08-25T20:21:21.503Z,47.54
2022-08-25T20:24:07.107Z,47.58
2022-08-25T20:26:33.602Z,47.63
2022-08-25T20:29:00.050Z,47.74
2022-08-25T20:31:26.542Z,48.55
2022-08-25T20:33:54.083Z,48.55
2022-08-25T20:36:26.790Z,48.70
2022-08-25T20:38:53.316Z,48.03
2022-08-25T20:41:19.761Z,48.54
2022-08-25T20:43:46.460Z,49.51
2022-08-25T20:46:16.205Z,48.65
2022-08-25T20:48:44.287Z,48.74
2022-08-25T20:51:13.080Z,48.85
2022-08-25T20:53:42.374Z,50.58
2022-08-25T20:56:14.691Z,50.12
2022-08-25T20:58:42.596Z,49.13
2022-08-25T21:01:13.079Z,48.58
2022-08-25T21:03:44.336Z,48.46
2022-08-25T21:06:14.254Z,49.02
2022-08-25T21:08:45.143Z,48.26
2022-08-25T21:11:18.054Z,48.58
2022-08-25T21:13:45.813Z,48.52
2022-08-25T21:16:12.397Z,47.70
2022-08-25T21:18:47.966Z,48.15
2022-08-25T21:21:16.591Z,48.33
2022-08-25T21:23:45.547Z,48.96
2022-08-25T21:26:17.583Z,49.81
2022-08-25T21:28:47.834Z,48.87
2022-08-25T21:31:15.221Z,49.10
2022-08-25T21:33:42.854Z,49.68
2022-08-25T21:36:11.028Z,50.19
2022-08-25T21:38:38.199Z,48.78
2022-08-25T21:41:11.456Z,49.12
2022-08-25T21:43:38.210Z,49.49
2022-08-25T21:46:06.233Z,49.38
2022-08-25T21:48:33.850Z,49.13
2022-08-25T21:51:12.802Z,49.35
2022-08-25T21:53:39.817Z,49.18
2022-08-25T21:56:09.954Z,49.67
2022-08-25T21:58:37.894Z,51.30
2022-08-25T22:01:10.944Z,52.71
2022-08-25T22:03:39.011Z,51.29
2022-08-25T22:06:09.189Z,51.05
2022-08-25T22:08:37.951Z,52.28
2022-08-25T22:11:06.030Z,52.67
2022-08-25T22:13:34.239Z,51.82
2022-08-25T22:16:01.012Z,51.30
2022-08-25T22:18:28.401Z,51.27
2022-08-25T22:20:54.952Z,50.99
2022-08-25T22:23:22.665Z,50.87
2022-08-25T22:25:55.389Z,51.33
2022-08-25T22:28:22.622Z,50.53
2022-08-25T22:30:49.827Z,50.77
2022-08-25T22:33:17.774Z,51.08
2022-08-25T22:35:44.625Z,50.72
2022-08-25T22:38:12.588Z,51.35
2022-08-25T22:40:40.519Z,50.68
2022-08-25T22:43:10.855Z,51.90
2022-08-25T22:45:37.653Z,51.52
2022-08-25T22:48:05.500Z,51.67
2022-08-25T22:50:35.105Z,52.16
2022-08-25T22:53:01.793Z,51.89
2022-08-25T22:55:28.519Z,51.77
2022-08-25T22:57:55.233Z,51.92
2022-08-25T23:00:22.155Z,51.54
2022-08-25T23:02:53.019Z,52.10
2022-08-25T23:05:19.811Z,53.20
2022-08-25T23:07:47.556Z,52.08
2022-08-25T23:10:14.356Z,52.16
2022-08-25T23:12:42.699Z,53.79
2022-08-25T23:15:11.837Z,52.82
2022-08-25T23:17:38.420Z,53.99
2022-08-25T23:20:27.020Z,52.44
2022-08-25T23:22:54.395Z,52.33
2022-08-25T23:25:21.843Z,54.23
2022-08-25T23:27:48.392Z,52.90
2022-08-25T23:30:18.741Z,53.19
2022-08-25T23:32:47.842Z,52.19
2022-08-25T23:35:14.612Z,53.11
2022-08-25T23:37:41.072Z,53.65
2022-08-25T23:40:10.849Z,52.20
2022-08-25T23:42:37.388Z,53.35
2022-08-25T23:45:04.162Z,53.29
2022-08-25T23:47:30.691Z,52.99
2022-08-25T23:49:58.924Z,53.71
2022-08-25T23:52:27.244Z,53.54
2022-08-25T23:54:54.210Z,53.39
2022-08-25T23:57:20.651Z,52.59
2022-08-25T23:59:48.872Z,53.00
